createdAt,value
2019-05-28T00:01:01.619Z,6.35
2019-05-28T00:03:31.308Z,5.08
2019-05-28T00:06:00.606Z,5.42
2019-05-28T00:08:29.567Z,4.97
2019-05-28T00:10:58.437Z,5.60
2019-05-28T00:13:27.547Z,4.40
2019-05-28T00:15:56.595Z,4.45
2019-05-28T00:18:26.022Z,4.17
2019-05-28T00:20:58.166Z,3.62
2019-05-28T00:23:27.056Z,4.80
2019-05-28T00:25:56.299Z,4.47
2019-05-28T00:28:25.622Z,4.87
2019-05-28T00:33:23.625Z,4.97
2019-05-28T00:38:22.370Z,4.42
2019-05-28T00:40:51.918Z,3.67
2019-05-28T00:43:21.159Z,4.65
2019-05-28T00:45:50.283Z,5.53
2019-05-28T00:48:19.745Z,4.47
2019-05-28T00:50:49.296Z,4.10
2019-05-28T00:53:18.557Z,4.35
2019-05-28T00:58:18.893Z,4.85
2019-05-28T01:00:53.899Z,6.50
2019-05-28T01:05:53.302Z,4.17
2019-05-28T01:08:25.535Z,4.40
2019-05-28T01:10:54.861Z,5.28
2019-05-28T01:13:24.619Z,4.00
2019-05-28T01:15:53.641Z,6.42
2019-05-28T01:18:23.072Z,4.50
2019-05-28T01:20:52.535Z,5.12
2019-05-28T01:23:21.587Z,6.08
2019-05-28T01:25:50.670Z,4.60
2019-05-28T01:28:19.564Z,4.12
2019-05-28T01:33:19.312Z,4.08
2019-05-28T01:35:48.129Z,4.25
2019-05-28T01:38:17.939Z,4.10
2019-05-28T01:40:47.546Z,4.33
2019-05-28T01:43:17.445Z,3.77
2019-05-28T01:45:47.040Z,4.12
2019-05-28T01:48:16.725Z,3.33
2019-05-28T01:53:15.478Z,4.10
2019-05-28T01:55:44.815Z,4.45
2019-05-28T01:58:15.491Z,3.42
2019-05-28T02:00:46.494Z,3.55
2019-05-28T02:03:16.042Z,6.83
2019-05-28T02:05:45.712Z,3.95
2019-05-28T02:08:15.467Z,4.78
2019-05-28T02:10:45.537Z,4.37
2019-05-28T02:13:15.372Z,3.22
2019-05-28T02:15:45.115Z,4.05
2019-05-28T02:18:15.417Z,4.10
2019-05-28T02:20:45.281Z,5.20
2019-05-28T02:23:15.291Z,4.65
2019-05-28T02:25:45.358Z,5.15
2019-05-28T02:28:15.420Z,5.55
2019-05-28T02:30:44.969Z,8.53
2019-05-28T02:33:15.544Z,8.80
2019-05-28T02:35:45.851Z,7.58
2019-05-28T02:38:16.125Z,8.25
2019-05-28T02:40:46.479Z,6.17
2019-05-28T02:43:16.379Z,5.72
2019-05-28T02:45:46.053Z,5.87
2019-05-28T02:48:16.739Z,5.90
2019-05-28T02:53:28.574Z,6.17
2019-05-28T02:55:59.005Z,6.72
2019-05-28T02:58:36.069Z,6.90
2019-05-28T03:01:08.482Z,8.65
2019-05-28T03:03:37.578Z,12.80
2019-05-28T03:06:08.006Z,10.25
2019-05-28T03:08:37.899Z,10.85
2019-05-28T03:11:07.031Z,8.85
2019-05-28T03:13:36.299Z,12.07
2019-05-28T03:16:07.576Z,15.05
2019-05-28T03:18:40.063Z,11.08
2019-05-28T03:21:11.905Z,11.25
2019-05-28T03:23:43.639Z,13.88
2019-05-28T03:26:12.747Z,11.90
2019-05-28T03:31:10.373Z,15.95
2019-05-28T03:33:39.386Z,13.90
2019-05-28T03:36:14.282Z,12.63
2019-05-28T03:38:45.997Z,12.20
2019-05-28T03:41:16.172Z,14.63
2019-05-28T03:43:45.089Z,11.75
2019-05-28T03:46:14.547Z,14.73
2019-05-28T03:48:43.564Z,15.45
2019-05-28T03:51:12.601Z,13.95
2019-05-28T03:53:41.842Z,17.65
2019-05-28T03:56:11.073Z,16.10
2019-05-28T03:58:41.560Z,19.27
2019-05-28T04:01:10.695Z,21.50
2019-05-28T04:03:39.941Z,17.62
2019-05-28T04:06:10.044Z,20.23
2019-05-28T04:08:39.728Z,19.98
2019-05-28T04:13:37.057Z,20.17
2019-05-28T04:16:05.962Z,23.38
2019-05-28T04:18:35.291Z,20.27
2019-05-28T04:21:04.479Z,21.27
2019-05-28T04:23:33.555Z,19.40
2019-05-28T04:26:02.694Z,21.20
2019-05-28T04:28:31.700Z,22.75
2019-05-28T04:33:29.040Z,21.65
2019-05-28T04:35:58.288Z,22.58
2019-05-28T04:38:30.403Z,24.35
2019-05-28T04:41:09.563Z,19.55
2019-05-28T04:43:50.399Z,22.40
2019-05-28T04:46:21.168Z,25.80
2019-05-28T04:48:50.488Z,22.60
2019-05-28T04:51:21.478Z,22.13
2019-05-28T04:57:09.117Z,20.85
2019-05-28T04:59:37.916Z,20.30
2019-05-28T05:02:07.965Z,20.80
2019-05-28T05:04:37.114Z,26.12
2019-05-28T05:07:06.124Z,23.90
2019-05-28T05:09:35.493Z,21.50
2019-05-28T05:12:04.729Z,21.27
2019-05-28T05:17:01.768Z,16.77
2019-05-28T05:19:30.835Z,16.27
2019-05-28T05:21:59.954Z,17.25
2019-05-28T05:24:29.100Z,16.17
2019-05-28T05:26:58.981Z,12.40
2019-05-28T05:29:28.069Z,12.33
2019-05-28T05:31:57.697Z,10.08
2019-05-28T05:34:26.872Z,11.97
2019-05-28T05:36:55.713Z,10.75
2019-05-28T05:41:53.009Z,8.90
2019-05-28T05:44:22.138Z,9.33
2019-05-28T05:46:57.482Z,8.95
2019-05-28T05:49:26.786Z,9.55
2019-05-28T05:51:56.585Z,8.38
2019-05-28T05:54:25.456Z,8.88
2019-05-28T05:56:54.610Z,7.28
2019-05-28T05:59:23.591Z,7.20
2019-05-28T06:04:24.134Z,8.18
2019-05-28T06:06:53.135Z,8.88
2019-05-28T06:09:22.306Z,6.65
2019-05-28T06:11:51.430Z,5.35
2019-05-28T06:14:20.752Z,6.97
2019-05-28T06:16:50.132Z,6.30
2019-05-28T06:19:20.288Z,7.55
2019-05-28T06:21:50.513Z,7.03
2019-05-28T06:24:20.512Z,7.28
2019-05-28T06:26:50.550Z,7.65
2019-05-28T06:29:20.639Z,10.00
2019-05-28T06:31:50.481Z,7.08
2019-05-28T06:34:20.417Z,6.50
2019-05-28T06:36:50.079Z,6.90
2019-05-28T06:39:19.755Z,6.75
2019-05-28T06:44:17.901Z,10.23
2019-05-28T06:46:47.571Z,8.73
2019-05-28T06:49:17.474Z,8.25
2019-05-28T06:51:47.564Z,7.53
2019-05-28T06:54:18.703Z,10.00
2019-05-28T07:01:46.152Z,7.60
2019-05-28T07:04:29.790Z,6.80
2019-05-28T07:06:47.297Z,6.42
2019-05-28T07:09:16.341Z,5.50
2019-05-28T07:16:52.722Z,6.05
2019-05-28T07:19:24.718Z,6.80
2019-05-28T07:21:46.066Z,5.53
2019-05-28T07:24:14.939Z,5.90
2019-05-28T07:26:44.550Z,6.50
2019-05-28T07:29:13.734Z,6.95
2019-05-28T07:31:43.041Z,5.20
2019-05-28T07:34:27.609Z,7.15
2019-05-28T07:36:44.401Z,6.60
2019-05-28T07:39:14.571Z,6.03
2019-05-28T07:41:44.283Z,5.12
2019-05-28T07:44:14.123Z,5.37
2019-05-28T07:46:43.630Z,4.55
2019-05-28T07:50:57.996Z,6.05
2019-05-28T07:53:39.569Z,4.97
2019-05-28T07:56:02.083Z,5.45
2019-05-28T07:58:31.726Z,6.40
2019-05-28T08:03:30.487Z,5.67
2019-05-28T08:05:59.753Z,7.95
2019-05-28T08:11:00.803Z,8.28
2019-05-28T08:13:40.382Z,8.08
2019-05-28T08:16:17.723Z,8.78
2019-05-28T08:18:33.052Z,8.03
2019-05-28T08:21:02.594Z,8.35
2019-05-28T08:26:01.981Z,8.40
2019-05-28T08:28:32.315Z,6.05
2019-05-28T08:31:14.995Z,6.55
2019-05-28T08:33:35.129Z,5.95
2019-05-28T08:36:04.789Z,5.45
2019-05-28T08:38:34.294Z,7.60
2019-05-28T08:41:03.968Z,6.33
2019-05-28T08:43:33.160Z,5.55
2019-05-28T08:46:03.571Z,4.67
2019-05-28T08:48:32.837Z,4.72
2019-05-28T08:51:01.826Z,4.47
2019-05-28T08:53:31.038Z,4.92
2019-05-28T08:56:00.010Z,4.28
2019-05-28T08:58:29.467Z,5.67
2019-05-28T09:00:58.594Z,4.35
2019-05-28T09:03:27.699Z,6.60
2019-05-28T09:08:38.778Z,4.37
2019-05-28T09:10:58.464Z,3.62
2019-05-28T09:13:27.998Z,4.92
2019-05-28T09:15:56.961Z,5.35
2019-05-28T09:18:26.420Z,4.95
2019-05-28T09:20:55.756Z,5.20
2019-05-28T09:23:25.232Z,5.00
2019-05-28T09:25:54.447Z,3.75
2019-05-28T09:28:30.007Z,4.45
2019-05-28T09:30:55.124Z,5.95
2019-05-28T09:33:25.891Z,4.15
2019-05-28T09:36:07.207Z,3.22
2019-05-28T09:38:26.120Z,5.08
2019-05-28T09:40:55.453Z,5.95
2019-05-28T09:43:24.967Z,6.25
2019-05-28T09:45:55.018Z,4.37
2019-05-28T09:48:23.935Z,4.53
2019-05-28T09:50:53.117Z,3.70
2019-05-28T09:53:21.930Z,5.60
2019-05-28T09:55:51.729Z,6.42
2019-05-28T09:58:21.485Z,5.87
2019-05-28T10:03:24.064Z,7.72
2019-05-28T10:06:02.028Z,4.03
2019-05-28T10:08:23.951Z,3.87
2019-05-28T10:10:53.549Z,5.03
2019-05-28T10:15:52.766Z,5.05
2019-05-28T10:18:22.740Z,19.10
2019-05-28T10:28:21.488Z,4.40
2019-05-28T10:33:20.587Z,6.85
2019-05-28T10:35:50.941Z,5.17
2019-05-28T10:38:21.457Z,4.15
2019-05-28T10:40:51.116Z,4.78
2019-05-28T10:43:20.923Z,4.37
2019-05-28T10:45:51.204Z,5.17
2019-05-28T10:48:21.069Z,4.67
2019-05-28T10:53:54.492Z,3.87
2019-05-28T10:56:23.636Z,6.25
2019-05-28T10:58:53.326Z,4.97
2019-05-28T11:01:22.986Z,5.12
2019-05-28T11:03:52.919Z,6.30
2019-05-28T11:06:22.718Z,3.50
2019-05-28T11:11:21.050Z,4.00
2019-05-28T11:13:53.363Z,5.80
2019-05-28T11:16:22.169Z,5.35
2019-05-28T11:18:51.717Z,3.40
2019-05-28T11:21:22.014Z,3.00
2019-05-28T11:23:52.295Z,5.37
2019-05-28T11:26:21.971Z,4.33
2019-05-28T11:28:51.600Z,5.65
2019-05-28T11:33:51.484Z,4.90
2019-05-28T11:36:21.453Z,4.60
2019-05-28T11:38:51.306Z,4.78
2019-05-28T11:41:21.107Z,3.22
2019-05-28T11:43:50.963Z,4.33
2019-05-28T11:46:22.448Z,3.95
2019-05-28T11:48:52.599Z,3.62
2019-05-28T11:53:51.609Z,3.05
2019-05-28T11:56:21.558Z,4.40
2019-05-28T12:03:52.490Z,2.95
2019-05-28T12:06:22.427Z,3.35
2019-05-28T12:11:21.059Z,3.52
2019-05-28T12:13:50.847Z,3.55
2019-05-28T12:16:20.520Z,10.58
2019-05-28T12:18:50.121Z,4.90
2019-05-28T12:21:20.332Z,4.72
2019-05-28T12:23:50.287Z,4.97
2019-05-28T12:26:20.143Z,4.60
2019-05-28T12:28:49.979Z,4.35
2019-05-28T12:31:19.591Z,4.25
2019-05-28T12:33:49.819Z,4.90
2019-05-28T12:36:19.531Z,4.45
2019-05-28T12:41:16.995Z,4.28
2019-05-28T12:43:46.446Z,2.95
2019-05-28T12:46:15.583Z,5.50
2019-05-28T12:48:44.248Z,5.25
2019-05-28T12:51:13.449Z,4.03
2019-05-28T12:53:50.378Z,5.37
2019-05-28T12:56:13.721Z,4.80
2019-05-28T13:01:13.297Z,5.72
2019-05-28T13:03:42.814Z,4.03
2019-05-28T13:06:12.561Z,3.33
2019-05-28T13:08:41.758Z,5.03
2019-05-28T13:13:38.993Z,4.75
2019-05-28T13:16:08.021Z,4.70
2019-05-28T13:18:36.987Z,4.33
2019-05-28T13:21:06.031Z,3.37
2019-05-28T13:23:35.104Z,5.37
2019-05-28T13:26:05.880Z,4.67
2019-05-28T13:28:34.688Z,4.60
2019-05-28T13:33:32.285Z,4.67
2019-05-28T13:36:01.116Z,3.27
2019-05-28T13:38:31.334Z,4.12
2019-05-28T13:41:00.153Z,4.22
2019-05-28T13:43:29.055Z,4.25
2019-05-28T13:45:57.938Z,3.58
2019-05-28T13:48:26.953Z,4.55
2019-05-28T13:50:56.036Z,4.55
2019-05-28T13:53:25.527Z,6.58
2019-05-28T13:55:54.608Z,4.40
2019-05-28T13:58:23.574Z,5.03
2019-05-28T14:00:53.138Z,5.08
2019-05-28T14:03:22.053Z,4.67
2019-05-28T14:05:52.478Z,3.45
2019-05-28T14:08:21.854Z,5.35
2019-05-28T14:10:51.555Z,4.08
2019-05-28T14:13:21.056Z,3.25
2019-05-28T14:15:50.018Z,5.50
2019-05-28T14:18:21.933Z,6.55
2019-05-28T14:20:51.070Z,7.50
2019-05-28T14:23:21.566Z,7.35
2019-05-28T14:25:50.983Z,5.65
2019-05-28T14:28:21.051Z,4.80
2019-05-28T14:31:00.004Z,3.65
2019-05-28T14:33:21.950Z,5.10
2019-05-28T14:35:51.911Z,5.42
2019-05-28T14:38:21.630Z,4.05
2019-05-28T14:43:18.939Z,4.20
2019-05-28T14:45:48.000Z,6.92
2019-05-28T14:48:17.168Z,4.67
2019-05-28T14:50:46.586Z,5.22
2019-05-28T14:55:44.131Z,4.55
2019-05-28T14:58:14.092Z,4.25
2019-05-28T15:00:43.592Z,5.58
2019-05-28T15:03:12.861Z,5.37
2019-05-28T15:05:41.941Z,5.25
2019-05-28T15:08:10.974Z,3.83
2019-05-28T15:10:40.495Z,3.83
2019-05-28T15:15:38.420Z,5.05
2019-05-28T15:18:07.442Z,6.60
2019-05-28T15:20:36.484Z,5.72
2019-05-28T15:23:05.491Z,5.10
2019-05-28T15:25:34.608Z,5.80
2019-05-28T15:30:31.985Z,6.70
2019-05-28T15:33:01.130Z,6.12
2019-05-28T15:35:30.064Z,5.15
2019-05-28T15:37:59.617Z,8.33
2019-05-28T15:40:29.067Z,6.08
2019-05-28T15:43:06.095Z,4.08
2019-05-28T15:45:29.050Z,6.00
2019-05-28T15:47:58.107Z,5.90
2019-05-28T15:50:27.043Z,4.15
2019-05-28T15:52:58.770Z,4.62
2019-05-28T15:55:27.757Z,3.02
2019-05-28T16:00:26.041Z,3.58
2019-05-28T16:02:55.596Z,5.60
2019-05-28T16:05:25.506Z,5.40
2019-05-28T16:07:54.953Z,4.45
2019-05-28T16:10:24.924Z,4.58
2019-05-28T16:12:55.057Z,4.17
2019-05-28T16:15:25.494Z,5.20
2019-05-28T16:17:55.533Z,4.90
2019-05-28T16:23:33.756Z,5.60
2019-05-28T16:28:31.559Z,4.67
2019-05-28T16:33:31.091Z,6.97
2019-05-28T16:36:00.169Z,5.97
2019-05-28T16:38:30.914Z,7.97
2019-05-28T16:41:01.972Z,6.53
2019-05-28T16:43:31.575Z,5.42
2019-05-28T16:46:00.938Z,7.12
2019-05-28T16:48:30.310Z,4.47
2019-05-28T16:50:59.640Z,7.28
2019-05-28T16:53:28.579Z,5.20
2019-05-28T16:58:26.095Z,5.50
2019-05-28T17:00:59.021Z,5.22
2019-05-28T17:03:26.971Z,4.70
2019-05-28T17:05:55.959Z,7.45
2019-05-28T17:08:26.446Z,5.42
2019-05-28T17:13:47.468Z,7.40
2019-05-28T17:16:13.500Z,4.40
2019-05-28T17:18:42.569Z,6.70
2019-05-28T17:23:40.178Z,6.50
2019-05-28T17:26:09.427Z,4.47
2019-05-28T17:28:38.585Z,6.17
2019-05-28T17:33:35.932Z,5.75
2019-05-28T17:36:05.296Z,4.65
2019-05-28T17:38:34.291Z,4.72
2019-05-28T17:41:04.483Z,5.53
2019-05-28T17:43:33.610Z,5.62
2019-05-28T17:48:31.972Z,3.62
2019-05-28T17:51:01.154Z,4.65
2019-05-28T17:53:29.985Z,4.22
2019-05-28T17:55:59.099Z,3.45
2019-05-28T17:58:30.947Z,4.33
2019-05-28T18:01:01.712Z,3.77
2019-05-28T18:03:30.952Z,6.05
2019-05-28T18:06:00.487Z,4.55
2019-05-28T18:08:29.819Z,5.37
2019-05-28T18:11:04.069Z,3.80
2019-05-28T18:13:30.059Z,5.75
2019-05-28T18:15:59.320Z,4.70
2019-05-28T18:18:28.703Z,5.95
2019-05-28T18:23:26.668Z,5.75
2019-05-28T18:28:26.567Z,4.20
2019-05-28T18:30:58.316Z,4.85
2019-05-28T18:33:27.508Z,5.12
2019-05-28T18:38:26.584Z,3.02
2019-05-28T18:40:56.618Z,4.67
2019-05-28T18:45:55.071Z,4.30
2019-05-28T18:48:27.534Z,4.17
2019-05-28T18:50:57.152Z,4.37
2019-05-28T18:53:27.020Z,5.12
2019-05-28T18:55:57.079Z,5.08
2019-05-28T18:58:27.329Z,4.72
2019-05-28T19:00:56.469Z,5.60
2019-05-28T19:03:27.740Z,4.55
2019-05-28T19:08:26.548Z,5.55
2019-05-28T19:10:59.097Z,5.70
2019-05-28T19:13:27.456Z,5.50
2019-05-28T19:15:57.670Z,3.30
2019-05-28T19:18:28.683Z,4.05
2019-05-28T19:20:59.613Z,3.95
2019-05-28T19:25:57.598Z,4.33
2019-05-28T19:33:26.789Z,4.75
2019-05-28T19:35:58.123Z,4.70
2019-05-28T19:38:44.564Z,5.17
2019-05-28T19:41:01.343Z,4.80
2019-05-28T19:43:30.603Z,5.40
2019-05-28T19:50:58.522Z,3.65
2019-05-28T19:53:28.606Z,3.85
2019-05-28T19:55:57.873Z,5.25
2019-05-28T19:58:27.213Z,5.72
2019-05-28T20:00:56.966Z,4.97
2019-05-28T20:03:26.474Z,6.08
2019-05-28T20:05:58.942Z,4.75
2019-05-28T20:08:27.703Z,3.45
2019-05-28T20:13:25.612Z,4.78
2019-05-28T20:15:58.180Z,5.20
2019-05-28T20:18:28.180Z,4.70
2019-05-28T20:20:58.207Z,4.35
2019-05-28T20:23:29.774Z,3.92
2019-05-28T20:28:27.753Z,3.47
2019-05-28T20:30:57.633Z,6.40
2019-05-28T20:35:59.622Z,4.30
2019-05-28T20:40:57.534Z,5.15
2019-05-28T20:43:27.023Z,4.42
2019-05-28T20:45:57.615Z,5.80
2019-05-28T20:48:27.510Z,5.42
2019-05-28T20:51:07.437Z,5.53
2019-05-28T20:53:36.097Z,4.60
2019-05-28T20:56:01.327Z,4.25
2019-05-28T20:58:39.958Z,5.45
2019-05-28T21:01:01.787Z,5.60
2019-05-28T21:03:33.487Z,4.47
2019-05-28T21:06:03.701Z,3.90
2019-05-28T21:08:33.558Z,5.12
2019-05-28T21:11:02.790Z,5.53
2019-05-28T21:16:00.394Z,5.40
2019-05-28T21:18:29.692Z,5.72
2019-05-28T21:23:28.510Z,5.28
2019-05-28T21:25:58.438Z,5.20
2019-05-28T21:28:28.434Z,6.58
2019-05-28T21:30:58.883Z,6.67
2019-05-28T21:33:28.466Z,4.30
2019-05-28T21:35:59.398Z,3.75
2019-05-28T21:38:28.722Z,4.05
2019-05-28T21:43:28.572Z,5.08
2019-05-28T21:45:58.179Z,4.25
2019-05-28T21:48:28.611Z,4.83
2019-05-28T21:50:58.801Z,6.47
2019-05-28T21:53:28.599Z,3.83
2019-05-28T21:55:59.357Z,3.67
2019-05-28T21:58:28.745Z,4.28
2019-05-28T22:03:34.132Z,3.58
2019-05-28T22:06:03.513Z,4.08
2019-05-28T22:11:01.804Z,2.22
2019-05-28T22:13:31.151Z,4.33
2019-05-28T22:16:00.290Z,6.37
2019-05-28T22:18:29.434Z,4.65
2019-05-28T22:20:58.710Z,7.72
2019-05-28T22:30:57.709Z,4.35
2019-05-28T22:33:28.812Z,4.22
2019-05-28T22:35:59.243Z,4.67
2019-05-28T22:38:29.537Z,5.67
2019-05-28T22:41:00.395Z,6.72
2019-05-28T22:43:32.074Z,3.67
2019-05-28T22:48:32.765Z,3.83
2019-05-28T22:53:30.576Z,5.75
2019-05-28T22:56:00.087Z,7.30
2019-05-28T22:58:29.757Z,7.83
2019-05-28T23:01:01.072Z,3.83
2019-05-28T23:03:30.603Z,3.22
2019-05-28T23:06:01.115Z,4.12
2019-05-28T23:08:30.503Z,4.25
2019-05-28T23:10:59.530Z,4.10
2019-05-28T23:13:29.392Z,2.80
2019-05-28T23:15:59.868Z,3.50
2019-05-28T23:18:29.931Z,2.20
2019-05-28T23:21:00.636Z,3.72
2019-05-28T23:25:59.731Z,3.08
2019-05-28T23:30:58.433Z,2.85
2019-05-28T23:33:28.449Z,3.25
2019-05-28T23:35:58.565Z,3.90
2019-05-28T23:38:28.075Z,4.17
2019-05-28T23:40:58.090Z,4.20
2019-05-28T23:43:28.555Z,2.87
2019-05-28T23:45:58.634Z,3.05
2019-05-28T23:50:58.554Z,5.47
2019-05-28T23:53:28.600Z,3.37
2019-05-28T23:56:00.049Z,4.28
2019-05-28T23:58:29.584Z,4.35
